createdAt,value
2022-12-04T00:01:36.587Z,5.10
2022-12-04T00:04:03.993Z,5.53
2022-12-04T00:06:31.584Z,5.53
2022-12-04T00:09:05.320Z,4.75
2022-12-04T00:11:33.465Z,4.97
2022-12-04T00:14:07.664Z,5.00
2022-12-04T00:16:35.426Z,4.30
2022-12-04T00:19:02.815Z,4.38
2022-12-04T00:21:36.322Z,4.28
2022-12-04T00:24:03.611Z,5.28
2022-12-04T00:26:43.356Z,4.72
2022-12-04T00:29:10.603Z,4.40
2022-12-04T00:31:44.447Z,4.70
2022-12-04T00:34:11.936Z,4.43
2022-12-04T00:39:13.471Z,4.88
2022-12-04T00:41:40.643Z,4.65
2022-12-04T00:44:14.610Z,4.47
2022-12-04T00:46:41.765Z,4.50
2022-12-04T00:49:08.878Z,4.35
2022-12-04T00:51:42.430Z,4.35
2022-12-04T00:54:09.653Z,4.22
2022-12-04T00:56:43.524Z,5.35
2022-12-04T00:59:11.171Z,4.28
2022-12-04T01:01:38.483Z,4.30
2022-12-04T01:04:12.472Z,4.68
2022-12-04T01:06:39.628Z,4.35
2022-12-04T01:09:13.425Z,5.32
2022-12-04T01:11:40.626Z,4.32
2022-12-04T01:14:14.496Z,4.60
2022-12-04T01:16:41.920Z,4.50
2022-12-04T01:21:43.421Z,4.45
2022-12-04T01:24:10.579Z,4.82
2022-12-04T01:26:51.460Z,4.82
2022-12-04T01:29:18.634Z,4.60
2022-12-04T01:31:45.846Z,4.75
2022-12-04T01:34:19.336Z,4.05
2022-12-04T01:36:46.594Z,4.13
2022-12-04T01:39:20.469Z,4.80
2022-12-04T01:41:47.668Z,4.30
2022-12-04T01:44:19.806Z,4.70
2022-12-04T01:46:54.366Z,4.35
2022-12-04T01:49:24.240Z,4.70
2022-12-04T01:52:03.350Z,4.53
2022-12-04T01:54:35.082Z,4.25
2022-12-04T01:57:10.522Z,4.10
2022-12-04T01:59:40.666Z,4.85
2022-12-04T02:02:15.471Z,4.47
2022-12-04T02:04:43.200Z,4.18
2022-12-04T02:07:17.465Z,4.13
2022-12-04T02:09:45.642Z,4.25
2022-12-04T02:12:12.740Z,4.32
2022-12-04T02:14:59.441Z,4.00
2022-12-04T02:17:34.354Z,4.13
2022-12-04T02:20:21.415Z,4.30
2022-12-04T02:23:06.719Z,4.63
2022-12-04T02:25:50.346Z,4.00
2022-12-04T02:28:24.194Z,3.80
2022-12-04T02:30:59.508Z,4.15
2022-12-04T02:33:29.357Z,4.20
2022-12-04T02:36:08.450Z,4.07
2022-12-04T02:38:41.510Z,4.07
2022-12-04T02:41:24.354Z,3.80
2022-12-04T02:44:11.769Z,4.10
2022-12-04T02:46:50.340Z,3.67
2022-12-04T02:49:20.286Z,3.40
2022-12-04T02:51:55.337Z,4.10
2022-12-04T02:54:24.888Z,3.70
2022-12-04T02:56:59.382Z,3.60
2022-12-04T02:59:36.431Z,4.70
2022-12-04T03:02:15.417Z,4.30
2022-12-04T03:04:43.107Z,3.97
2022-12-04T03:07:25.379Z,3.60
2022-12-04T03:09:55.384Z,3.53
2022-12-04T03:12:31.407Z,3.80
2022-12-04T03:15:03.418Z,4.03
2022-12-04T03:17:40.357Z,3.92
2022-12-04T03:20:10.611Z,3.95
2022-12-04T03:22:46.800Z,3.45
2022-12-04T03:25:20.350Z,3.38
2022-12-04T03:28:12.368Z,3.92
2022-12-04T03:30:50.420Z,3.58
2022-12-04T03:35:54.594Z,3.60
2022-12-04T03:38:47.367Z,3.80
2022-12-04T03:41:48.027Z,3.05
2022-12-04T03:44:27.371Z,4.00
2022-12-04T03:46:57.380Z,3.90
2022-12-04T03:49:31.523Z,3.42
2022-12-04T03:52:05.067Z,3.60
2022-12-04T03:54:47.367Z,3.25
2022-12-04T03:57:16.311Z,3.60
2022-12-04T04:00:09.488Z,3.15
2022-12-04T04:02:52.018Z,3.85
2022-12-04T04:05:26.378Z,3.80
2022-12-04T04:07:55.699Z,4.18
2022-12-04T04:10:32.593Z,4.28
2022-12-04T04:13:20.903Z,3.60
2022-12-04T04:16:18.461Z,3.90
2022-12-04T04:19:04.514Z,3.40
2022-12-04T04:21:59.372Z,4.15
2022-12-04T04:24:42.482Z,4.20
2022-12-04T04:27:23.541Z,3.45
2022-12-04T04:29:52.760Z,3.63
2022-12-04T04:32:37.456Z,3.75
2022-12-04T04:35:10.890Z,3.53
2022-12-04T04:37:54.383Z,3.88
2022-12-04T04:40:21.639Z,4.10
2022-12-04T04:43:03.382Z,3.97
2022-12-04T04:45:30.521Z,3.67
2022-12-04T04:48:13.393Z,4.15
2022-12-04T04:50:41.364Z,3.67
2022-12-04T04:53:16.607Z,4.18
2022-12-04T04:55:44.376Z,4.40
2022-12-04T04:58:13.987Z,4.28
2022-12-04T05:00:47.385Z,3.63
2022-12-04T05:03:14.664Z,4.35
2022-12-04T05:05:48.508Z,3.92
2022-12-04T05:08:15.712Z,4.05
2022-12-04T05:10:42.883Z,4.22
2022-12-04T05:13:18.386Z,4.43
2022-12-04T05:15:45.795Z,3.70
2022-12-04T05:18:19.529Z,4.20
2022-12-04T05:20:46.744Z,3.97
2022-12-04T05:23:13.849Z,4.45
2022-12-04T05:25:47.519Z,4.05
2022-12-04T05:28:21.935Z,3.95
2022-12-04T05:31:01.723Z,4.15
2022-12-04T05:33:29.410Z,4.00
2022-12-04T05:36:13.618Z,4.35
2022-12-04T05:38:40.775Z,4.25
2022-12-04T05:41:08.238Z,4.13
2022-12-04T05:46:10.631Z,4.15
2022-12-04T05:48:44.519Z,4.25
2022-12-04T05:51:11.887Z,3.80
2022-12-04T05:53:39.207Z,4.60
2022-12-04T05:56:14.656Z,4.30
2022-12-04T05:58:41.922Z,4.05
2022-12-04T06:01:10.225Z,3.50
2022-12-04T06:03:44.404Z,4.13
2022-12-04T06:06:21.890Z,4.22
2022-12-04T06:11:34.518Z,4.18
2022-12-04T06:14:09.640Z,4.25
2022-12-04T06:16:38.391Z,4.20
2022-12-04T06:19:07.191Z,3.80
2022-12-04T06:21:43.419Z,3.85
2022-12-04T06:24:15.628Z,3.67
2022-12-04T06:27:18.702Z,3.88
2022-12-04T06:29:36.716Z,4.60
2022-12-04T06:32:10.379Z,4.18
2022-12-04T06:34:44.359Z,3.92
2022-12-04T06:37:11.601Z,3.40
2022-12-04T06:39:38.850Z,4.30
2022-12-04T06:42:12.591Z,3.90
2022-12-04T06:44:39.869Z,4.05
2022-12-04T06:47:13.412Z,4.00
2022-12-04T06:49:40.668Z,4.47
2022-12-04T06:52:07.782Z,3.70
2022-12-04T06:54:41.402Z,3.53
2022-12-04T06:57:08.642Z,3.88
2022-12-04T06:59:42.522Z,3.45
2022-12-04T07:02:10.245Z,3.50
2022-12-04T07:04:37.428Z,3.50
2022-12-04T07:07:11.448Z,4.03
2022-12-04T07:09:38.757Z,2.90
2022-12-04T07:12:12.389Z,3.33
2022-12-04T07:14:39.619Z,3.60
2022-12-04T07:17:13.600Z,3.17
2022-12-04T07:19:40.798Z,3.35
2022-12-04T07:22:08.963Z,3.65
2022-12-04T07:24:44.411Z,3.55
2022-12-04T07:27:18.402Z,3.97
2022-12-04T07:29:59.519Z,3.72
2022-12-04T07:32:26.792Z,3.45
2022-12-04T07:34:53.878Z,3.45
2022-12-04T07:37:27.631Z,3.60
2022-12-04T07:39:55.086Z,3.38
2022-12-04T07:42:24.293Z,3.42
2022-12-04T07:44:58.462Z,3.50
2022-12-04T07:47:25.606Z,3.30
2022-12-04T07:49:59.407Z,3.03
2022-12-04T07:52:26.641Z,3.30
2022-12-04T07:55:00.477Z,3.30
2022-12-04T07:57:28.587Z,3.70
2022-12-04T08:00:02.640Z,3.00
2022-12-04T08:02:29.913Z,3.50
2022-12-04T08:04:57.073Z,3.50
2022-12-04T08:07:30.482Z,3.78
2022-12-04T08:09:57.942Z,3.40
2022-12-04T08:12:32.580Z,3.58
2022-12-04T08:15:00.072Z,3.40
2022-12-04T08:20:01.452Z,3.45
2022-12-04T08:22:28.631Z,3.65
2022-12-04T08:25:02.492Z,3.55
2022-12-04T08:27:36.432Z,3.55
2022-12-04T08:30:10.559Z,3.03
2022-12-04T08:32:37.721Z,3.50
2022-12-04T08:35:05.001Z,3.42
2022-12-04T08:37:38.411Z,3.55
2022-12-04T08:40:05.803Z,3.10
2022-12-04T08:42:39.542Z,3.58
2022-12-04T08:45:06.985Z,3.45
2022-12-04T08:47:34.095Z,3.33
2022-12-04T08:50:07.424Z,3.08
2022-12-04T08:52:34.793Z,3.00
2022-12-04T08:55:08.516Z,3.25
2022-12-04T08:57:35.769Z,3.55
2022-12-04T09:00:10.648Z,3.63
2022-12-04T09:02:38.111Z,3.45
2022-12-04T09:07:39.505Z,3.10
2022-12-04T09:10:06.965Z,3.08
2022-12-04T09:12:40.574Z,3.20
2022-12-04T09:15:08.202Z,2.95
2022-12-04T09:17:36.663Z,2.97
2022-12-04T09:20:14.458Z,2.58
2022-12-04T09:23:02.753Z,3.40
2022-12-04T09:25:35.476Z,2.63
2022-12-04T09:28:16.434Z,3.10
2022-12-04T09:30:50.567Z,3.80
2022-12-04T09:33:17.866Z,3.35
2022-12-04T09:35:51.590Z,2.85
2022-12-04T09:38:18.891Z,2.85
2022-12-04T09:41:12.559Z,2.67
2022-12-04T09:43:52.651Z,2.83
2022-12-04T09:46:29.987Z,2.97
2022-12-04T09:48:59.113Z,2.40
2022-12-04T09:51:26.961Z,2.90
2022-12-04T09:54:15.608Z,3.10
2022-12-04T09:56:54.686Z,3.42
2022-12-04T09:59:30.543Z,2.88
2022-12-04T10:02:19.508Z,2.85
2022-12-04T10:04:53.537Z,2.88
2022-12-04T10:07:33.514Z,3.08
2022-12-04T10:10:08.002Z,2.90
2022-12-04T10:12:41.376Z,2.50
2022-12-04T10:15:22.655Z,2.53
2022-12-04T10:18:15.366Z,2.80
2022-12-04T10:20:51.813Z,2.65
2022-12-04T10:23:53.400Z,3.08
2022-12-04T10:26:47.442Z,2.60
2022-12-04T10:29:31.376Z,2.95
2022-12-04T10:32:03.671Z,2.92
2022-12-04T10:34:42.610Z,2.70
2022-12-04T10:37:14.337Z,2.92
2022-12-04T10:39:56.568Z,2.97
2022-12-04T10:42:30.255Z,2.88
2022-12-04T10:45:04.388Z,3.03
2022-12-04T10:47:31.919Z,2.72
2022-12-04T10:52:33.394Z,3.13
2022-12-04T10:55:01.342Z,3.15
2022-12-04T10:57:42.658Z,2.88
2022-12-04T11:00:25.388Z,3.10
2022-12-04T11:02:59.476Z,3.30
2022-12-04T11:05:31.876Z,3.30
2022-12-04T11:08:07.657Z,3.40
2022-12-04T11:10:37.291Z,3.42
2022-12-04T11:13:21.560Z,3.10
2022-12-04T11:15:50.140Z,3.20
2022-12-04T11:18:28.484Z,3.35
2022-12-04T11:21:16.224Z,3.42
2022-12-04T11:23:54.650Z,3.35
2022-12-04T11:26:46.413Z,2.95
2022-12-04T11:29:22.455Z,3.30
2022-12-04T11:32:00.240Z,2.95
2022-12-04T11:34:39.748Z,3.00
2022-12-04T11:37:14.374Z,3.20
2022-12-04T11:39:42.171Z,3.38
2022-12-04T11:42:26.389Z,3.50
2022-12-04T11:45:04.474Z,3.47
2022-12-04T11:47:39.404Z,3.15
2022-12-04T11:50:25.190Z,3.33
2022-12-04T11:53:13.364Z,3.00
2022-12-04T11:56:00.482Z,2.80
2022-12-04T11:58:46.374Z,3.17
2022-12-04T12:01:29.254Z,3.03
2022-12-04T12:04:15.392Z,3.45
2022-12-04T12:06:45.401Z,3.00
2022-12-04T12:09:25.413Z,3.22
2022-12-04T12:11:57.432Z,3.67
2022-12-04T12:14:31.413Z,3.05
2022-12-04T12:17:12.460Z,3.20
2022-12-04T12:19:52.407Z,3.50
2022-12-04T12:22:28.558Z,3.47
2022-12-04T12:25:14.383Z,3.58
2022-12-04T12:27:57.427Z,3.30
2022-12-04T12:30:31.381Z,3.15
2022-12-04T12:33:20.792Z,3.78
2022-12-04T12:36:00.427Z,3.47
2022-12-04T12:38:30.786Z,3.28
2022-12-04T12:41:23.424Z,2.85
2022-12-04T12:43:55.708Z,3.58
2022-12-04T12:46:37.569Z,3.45
2022-12-04T12:49:13.247Z,3.30
2022-12-04T12:51:50.519Z,3.70
2022-12-04T12:54:36.294Z,3.92
2022-12-04T12:57:12.529Z,3.22
2022-12-04T12:59:41.934Z,3.40
2022-12-04T13:02:21.428Z,3.72
2022-12-04T13:04:57.574Z,3.22
2022-12-04T13:07:28.491Z,3.88
2022-12-04T13:10:07.474Z,3.22
2022-12-04T13:12:45.706Z,3.33
2022-12-04T13:17:48.218Z,3.60
2022-12-04T13:20:27.605Z,3.47
2022-12-04T13:23:07.860Z,3.88
2022-12-04T13:25:50.509Z,4.07
2022-12-04T13:28:39.482Z,3.85
2022-12-04T13:31:18.495Z,3.30
2022-12-04T13:34:04.149Z,3.67
2022-12-04T13:36:43.586Z,3.40
2022-12-04T13:39:29.493Z,3.88
2022-12-04T13:42:05.647Z,3.38
2022-12-04T13:44:34.017Z,3.53
2022-12-04T13:47:01.272Z,3.47
2022-12-04T13:49:36.503Z,3.60
2022-12-04T13:52:05.974Z,3.42
2022-12-04T13:54:43.591Z,3.80
2022-12-04T13:57:13.556Z,3.40
2022-12-04T13:59:40.857Z,3.38
2022-12-04T14:02:24.527Z,3.40
2022-12-04T14:05:09.431Z,3.83
2022-12-04T14:07:38.600Z,3.45
2022-12-04T14:10:13.543Z,3.80
2022-12-04T14:12:42.090Z,3.58
2022-12-04T14:15:29.419Z,3.92
2022-12-04T14:18:01.506Z,3.58
2022-12-04T14:20:36.561Z,3.90
2022-12-04T14:23:11.517Z,3.50
2022-12-04T14:25:46.543Z,3.40
2022-12-04T14:28:35.981Z,3.80
2022-12-04T14:31:12.718Z,3.38
2022-12-04T14:33:49.826Z,3.30
2022-12-04T14:36:31.580Z,3.65
2022-12-04T14:39:05.126Z,3.78
2022-12-04T14:41:39.534Z,3.20
2022-12-04T14:44:07.243Z,3.45
2022-12-04T14:46:47.412Z,3.90
2022-12-04T14:49:33.588Z,3.72
2022-12-04T14:52:00.819Z,3.38
2022-12-04T14:54:46.624Z,3.42
2022-12-04T14:57:23.806Z,3.55
2022-12-04T14:59:58.714Z,3.87
2022-12-04T15:02:29.272Z,3.83
2022-12-04T15:04:57.358Z,3.45
2022-12-04T15:07:36.608Z,3.60
2022-12-04T15:10:39.428Z,3.53
2022-12-04T15:13:06.594Z,3.80
2022-12-04T15:15:40.455Z,3.78
2022-12-04T15:18:10.566Z,3.65
2022-12-04T15:20:59.607Z,3.40
2022-12-04T15:23:41.600Z,3.75
2022-12-04T15:26:18.408Z,4.05
2022-12-04T15:29:15.604Z,3.58
2022-12-04T15:31:53.562Z,3.90
2022-12-04T15:34:22.286Z,3.72
2022-12-04T15:37:02.590Z,4.00
2022-12-04T15:39:30.706Z,3.60
2022-12-04T15:42:24.524Z,4.63
2022-12-04T15:45:10.520Z,3.60
2022-12-04T15:47:45.455Z,4.28
2022-12-04T15:50:12.942Z,4.07
2022-12-04T15:55:14.537Z,4.00
2022-12-04T15:57:43.073Z,3.70
2022-12-04T16:00:46.498Z,4.13
2022-12-04T16:03:35.503Z,3.80
2022-12-04T16:06:10.533Z,4.30
2022-12-04T16:08:45.460Z,3.70
2022-12-04T16:11:18.889Z,3.92
2022-12-04T16:13:52.424Z,3.55
2022-12-04T16:16:23.182Z,4.03
2022-12-04T16:18:56.483Z,3.80
2022-12-04T16:21:25.577Z,4.20
2022-12-04T16:23:52.672Z,3.90
2022-12-04T16:26:27.493Z,4.18
2022-12-04T16:29:01.468Z,4.07
2022-12-04T16:31:35.824Z,3.75
2022-12-04T16:34:03.064Z,4.28
2022-12-04T16:36:30.206Z,4.20
2022-12-04T16:39:03.537Z,5.10
2022-12-04T16:41:30.694Z,4.40
2022-12-04T16:43:59.214Z,4.22
2022-12-04T16:46:34.718Z,4.40
2022-12-04T16:49:07.248Z,4.35
2022-12-04T16:51:41.485Z,4.72
2022-12-04T16:54:10.027Z,4.30
2022-12-04T16:56:43.544Z,3.95
2022-12-04T16:59:12.460Z,3.95
2022-12-04T17:01:51.731Z,3.55
2022-12-04T17:04:19.196Z,4.55
2022-12-04T17:06:46.848Z,4.32
2022-12-04T17:09:21.751Z,4.03
2022-12-04T17:11:48.927Z,4.38
2022-12-04T17:14:16.044Z,4.63
2022-12-04T17:16:51.752Z,5.43
2022-12-04T17:19:25.462Z,4.20
2022-12-04T17:21:59.775Z,4.13
2022-12-04T17:24:33.815Z,4.38
2022-12-04T17:27:11.860Z,4.35
2022-12-04T17:29:52.505Z,4.55
2022-12-04T17:32:19.790Z,4.30
2022-12-04T17:34:47.129Z,4.47
2022-12-04T17:37:20.721Z,4.55
2022-12-04T17:39:47.911Z,4.00
2022-12-04T17:42:16.682Z,4.85
2022-12-04T17:44:50.753Z,4.32
2022-12-04T17:47:18.184Z,4.22
2022-12-04T17:49:45.409Z,4.60
2022-12-04T17:52:19.695Z,4.38
2022-12-04T17:54:46.881Z,4.18
2022-12-04T17:57:20.750Z,4.88
2022-12-04T17:59:48.222Z,4.70
2022-12-04T18:04:49.593Z,4.80
2022-12-04T18:07:16.884Z,4.32
2022-12-04T18:09:50.643Z,4.72
2022-12-04T18:12:17.856Z,4.63
2022-12-04T18:14:45.062Z,4.10
2022-12-04T18:17:18.521Z,4.65
2022-12-04T18:19:45.754Z,4.63
2022-12-04T18:22:19.734Z,4.18
2022-12-04T18:24:46.963Z,4.72
2022-12-04T18:27:27.758Z,4.75
2022-12-04T18:30:01.670Z,4.75
2022-12-04T18:32:35.760Z,4.20
2022-12-04T18:35:03.098Z,4.63
2022-12-04T18:37:30.190Z,4.75
2022-12-04T18:40:06.932Z,4.15
2022-12-04T18:42:34.654Z,3.83
2022-12-04T18:45:01.754Z,4.68
2022-12-04T18:47:35.622Z,5.10
2022-12-04T18:50:02.950Z,4.40
2022-12-04T18:52:36.564Z,4.18
2022-12-04T18:55:03.792Z,4.85
2022-12-04T18:57:37.697Z,5.05
2022-12-04T19:00:05.104Z,4.75
2022-12-04T19:02:32.283Z,4.45
2022-12-04T19:05:05.587Z,4.55
2022-12-04T19:07:32.895Z,4.47
2022-12-04T19:10:10.817Z,4.85
2022-12-04T19:12:44.535Z,4.75
2022-12-04T19:15:11.790Z,4.25
2022-12-04T19:17:45.623Z,4.25
2022-12-04T19:20:13.166Z,4.38
2022-12-04T19:25:14.020Z,4.18
2022-12-04T19:27:54.566Z,4.88
2022-12-04T19:30:28.585Z,4.40
2022-12-04T19:33:02.836Z,4.43
2022-12-04T19:35:30.128Z,4.82
2022-12-04T19:37:57.214Z,4.70
2022-12-04T19:40:30.601Z,4.40
2022-12-04T19:43:02.584Z,5.20
2022-12-04T19:45:36.777Z,4.70
2022-12-04T19:48:04.739Z,4.47
2022-12-04T19:50:32.419Z,5.20
2022-12-04T19:53:06.527Z,4.68
2022-12-04T19:55:36.316Z,5.03
2022-12-04T19:58:09.720Z,4.40
2022-12-04T20:00:36.913Z,4.63
2022-12-04T20:03:04.102Z,5.00
2022-12-04T20:05:37.628Z,4.57
2022-12-04T20:10:39.605Z,5.20
2022-12-04T20:13:06.766Z,4.63
2022-12-04T20:15:44.902Z,4.72
2022-12-04T20:20:41.113Z,4.05
2022-12-04T20:23:14.596Z,4.47
2022-12-04T20:25:41.746Z,4.38
2022-12-04T20:28:15.710Z,4.50
2022-12-04T20:30:42.975Z,3.85
2022-12-04T20:33:10.175Z,4.15
2022-12-04T20:35:44.617Z,4.80
2022-12-04T20:38:18.475Z,4.65
2022-12-04T20:40:52.609Z,4.60
2022-12-04T20:43:19.785Z,4.80
2022-12-04T20:45:53.660Z,4.80
2022-12-04T20:48:20.989Z,4.75
2022-12-04T20:50:54.541Z,4.85
2022-12-04T20:53:21.855Z,4.80
2022-12-04T20:56:01.593Z,5.25
2022-12-04T20:58:28.745Z,4.80
2022-12-04T21:01:02.759Z,4.70
2022-12-04T21:03:29.924Z,4.78
2022-12-04T21:05:57.012Z,4.75
2022-12-04T21:08:49.549Z,5.10
2022-12-04T21:11:23.556Z,4.93
2022-12-04T21:14:15.601Z,5.25
2022-12-04T21:16:43.266Z,5.35
2022-12-04T21:19:18.755Z,5.70
2022-12-04T21:21:46.097Z,5.30
2022-12-04T21:24:20.541Z,4.97
2022-12-04T21:26:47.758Z,4.55
2022-12-04T21:29:28.752Z,5.00
2022-12-04T21:31:55.921Z,4.97
2022-12-04T21:34:23.002Z,4.70
2022-12-04T21:36:56.623Z,4.75
2022-12-04T21:39:23.935Z,4.68
2022-12-04T21:42:16.578Z,4.75
2022-12-04T21:44:43.979Z,4.47
2022-12-04T21:47:11.197Z,4.60
2022-12-04T21:49:44.694Z,5.07
2022-12-04T21:52:11.843Z,4.78
2022-12-04T21:54:45.710Z,4.80
2022-12-04T21:57:12.944Z,5.07
2022-12-04T21:59:40.040Z,5.10
2022-12-04T22:02:13.635Z,4.50
2022-12-04T22:04:41.248Z,4.28
2022-12-04T22:07:14.661Z,4.55
2022-12-04T22:09:41.849Z,3.90
2022-12-04T22:15:02.567Z,4.35
2022-12-04T22:17:30.176Z,4.95
2022-12-04T22:19:57.603Z,4.43
2022-12-04T22:22:31.644Z,4.63
2022-12-04T22:25:01.443Z,4.78
2022-12-04T22:27:35.717Z,4.20
2022-12-04T22:30:09.550Z,4.15
2022-12-04T22:32:43.582Z,4.57
2022-12-04T22:35:17.507Z,4.35
2022-12-04T22:37:44.911Z,4.40
2022-12-04T22:40:19.652Z,4.88
2022-12-04T22:42:46.892Z,4.45
2022-12-04T22:45:15.042Z,4.20
2022-12-04T22:47:48.659Z,4.40
2022-12-04T22:50:15.814Z,4.40
2022-12-04T22:52:49.785Z,4.38
2022-12-04T22:55:16.977Z,4.03
2022-12-04T22:57:44.073Z,4.22
2022-12-04T23:00:17.578Z,4.35
2022-12-04T23:02:44.929Z,4.40
2022-12-04T23:07:46.029Z,4.65
2022-12-04T23:10:13.291Z,4.90
2022-12-04T23:12:46.698Z,4.15
2022-12-04T23:15:13.885Z,4.18
2022-12-04T23:17:47.618Z,4.55
2022-12-04T23:20:14.911Z,3.92
2022-12-04T23:22:42.033Z,4.40
2022-12-04T23:25:15.667Z,4.47
2022-12-04T23:28:02.499Z,4.57
2022-12-04T23:30:36.854Z,4.88
2022-12-04T23:33:04.164Z,4.57
2022-12-04T23:35:37.562Z,3.83
2022-12-04T23:38:04.669Z,4.32
2022-12-04T23:40:38.721Z,3.90
2022-12-04T23:43:05.871Z,4.22
2022-12-04T23:45:33.284Z,4.25
2022-12-04T23:48:07.570Z,4.50
2022-12-04T23:50:34.788Z,4.47
2022-12-04T23:53:08.705Z,4.60
2022-12-04T23:55:35.934Z,4.43
2022-12-04T23:58:03.181Z,4.10
